Aviation Digital Data Service (ADDS)

Output produced by METARs form (0051 UTC 20 April 2019)
found at http://www.aviationweather.gov/metar/data/
 
Forecast for: EKYT (ALBORG , DK)
Text: TAF EKYT 192312Z 2000/2024 VRB05KT 9999 FEW200
Forecast period: 0000 to 1100 UTC 20 April 2019
Forecast type: FROM: standard forecast or significant change
Winds: variable direction winds at 6 MPH (5 knots; 2.6 m/s)
Visibility: 6 or more miles 10+ km)
Ceiling: at least 12,000 feet AGL
Clouds: few clouds at 20000 feet AGL
Weather: no significant weather forecast for this period
Text: BECMG 2011/2014 30010KT
Forecast period: 1100 to 1700 UTC 20 April 2019
Forecast type: BECOMING: Conditions expected to become as follows by 1400 UTC 20 April 2019
Winds: from the WNW (300 degrees) at 12 MPH (10 knots; 5.1 m/s)
Visibility: 6 or more miles 10+ km)
Ceiling: at least 12,000 feet AGL
Clouds: few clouds at 20000 feet AGL
Weather: no significant weather forecast for this period
Text: BECMG 2017/2020 26004KT
Forecast period: 1700 UTC 20 April 2019 to 0000 UTC 21 April 2019
Forecast type: BECOMING: Conditions expected to become as follows by 2000 UTC 20 April 2019
Winds: from the W (260 degrees) at 5 MPH (4 knots; 2.1 m/s)
Visibility: 6 or more miles 10+ km)
Ceiling: at least 12,000 feet AGL
Clouds: few clouds at 20000 feet AGL
Weather: no significant weather forecast for this period